Time;durP1;ratioP1;P1;durP2;ratioP2;P2;SDS_P1;SDS_P2;PMS_P1;PMS_P2;Temp;Humidity;BMP_temperature;BMP_pressure;BME280_temperature;BME280_humidity;BME280_pressure;Samples;Min_cycle;Max_cycle;Signal;HPM_P1;HPM_P2
2023/10/14 00:01:18;;;;;;;9.93;2.17;;;13.40;99.90;;;;;;5101281;28;20060;-79
2023/10/14 00:03:45;;;;;;;11.90;2.25;;;13.30;99.90;;;;;;5090098;28;20474;-79
2023/10/14 00:06:17;;;;;;;14.35;1.95;;;13.30;99.90;;;;;;5096953;28;20521;-80
2023/10/14 00:08:58;;;;;;;10.95;2.28;;;13.30;99.90;;;;;;5082397;28;20070;-79
2023/10/14 00:11:35;;;;;;;13.68;2.08;;;13.20;99.90;;;;;;5113899;28;20040;-78
2023/10/14 00:14:09;;;;;;;11.80;2.22;;;13.10;99.90;;;;;;5080865;28;20099;-78
2023/10/14 00:16:41;;;;;;;9.05;1.77;;;13.10;99.90;;;;;;5090470;28;20041;-79
2023/10/14 00:19:09;;;;;;;14.70;2.80;;;13.00;99.90;;;;;;5106294;28;20131;-79
2023/10/14 00:21:36;;;;;;;11.77;2.88;;;13.00;99.90;;;;;;5094465;28;20051;-81
2023/10/14 00:24:06;;;;;;;15.50;2.35;;;12.90;99.90;;;;;;5074477;28;20401;-78
2023/10/14 00:26:33;;;;;;;13.10;1.80;;;12.90;99.90;;;;;;5104144;28;20083;-79
2023/10/14 00:31:41;;;;;;;19.52;3.05;;;12.80;99.90;;;;;;5096755;28;20063;-80
2023/10/14 00:34:10;;;;;;;16.33;2.58;;;12.80;99.90;;;;;;5074725;28;20044;-78
2023/10/14 00:36:38;;;;;;;14.63;2.83;;;12.80;99.90;;;;;;5111843;28;20032;-80
2023/10/14 00:39:16;;;;;;;;;;;12.60;99.90;;;;;;5100749;28;20069;-79
2023/10/14 00:41:44;;;;;;;16.48;2.75;;;12.60;99.90;;;;;;5080135;28;20396;-79
2023/10/14 00:44:10;;;;;;;23.13;3.00;;;12.60;99.90;;;;;;5086595;28;20093;-80
2023/10/14 00:46:42;;;;;;;15.20;2.85;;;12.60;99.90;;;;;;5081298;28;20086;-81
2023/10/14 00:49:11;;;;;;;15.75;2.88;;;12.50;99.90;;;;;;5093596;28;20035;-80
2023/10/14 00:51:42;;;;;;;14.85;3.22;;;12.50;99.90;;;;;;5096176;28;20044;-80
2023/10/14 00:54:15;;;;;;;20.63;3.30;;;12.50;99.90;;;;;;5089428;28;20505;-78
2023/10/14 00:56:41;;;;;;;19.35;4.00;;;12.40;99.90;;;;;;5085181;28;20079;-79
2023/10/14 00:59:09;;;;;;;17.48;2.95;;;12.40;99.90;;;;;;5107563;28;20494;-80
2023/10/14 01:04:32;;;;;;;16.17;3.33;;;12.20;99.90;;;;;;5117130;28;20075;-79
2023/10/14 01:07:04;;;;;;;16.52;2.95;;;12.20;99.90;;;;;;5109937;28;20188;-80
2023/10/14 01:09:48;;;;;;;17.38;3.00;;;12.10;99.90;;;;;;5109948;28;20407;-80
2023/10/14 01:14:52;;;;;;;20.77;4.22;;;12.00;99.90;;;;;;5091817;28;20127;-78
2023/10/14 01:17:27;;;;;;;23.73;4.10;;;11.90;99.90;;;;;;5108473;28;20385;-79
2023/10/14 01:19:59;;;;;;;19.95;3.67;;;11.90;99.90;;;;;;5099134;28;20040;-79
2023/10/14 01:22:29;;;;;;;18.20;3.33;;;11.80;99.90;;;;;;5084648;28;20039;-79
2023/10/14 01:24:56;;;;;;;21.75;2.70;;;11.80;99.90;;;;;;5095058;28;20048;-82
2023/10/14 01:27:34;;;;;;;15.18;3.30;;;11.80;99.90;;;;;;5098054;28;20037;-79
2023/10/14 01:29:59;;;;;;;13.93;2.63;;;11.90;99.90;;;;;;5089835;28;20101;-79
2023/10/14 01:35:31;;;;;;;13.77;2.92;;;11.60;99.90;;;;;;5108090;28;20089;-79
2023/10/14 01:37:58;;;;;;;17.50;3.55;;;11.60;99.90;;;;;;5113238;28;20040;-79
2023/10/14 01:40:35;;;;;;;15.27;2.83;;;11.60;99.90;;;;;;5111654;28;20040;-80
2023/10/14 01:43:08;;;;;;;15.82;2.75;;;11.50;99.90;;;;;;5088767;28;20110;-79
2023/10/14 01:48:25;;;;;;;20.05;3.40;;;11.50;99.90;;;;;;5098895;28;20055;-80
2023/10/14 01:50:54;;;;;;;13.75;3.17;;;11.40;99.90;;;;;;5098330;28;20461;-79
2023/10/14 01:53:23;;;;;;;17.63;3.00;;;11.40;99.90;;;;;;5102411;28;20051;-79
2023/10/14 01:55:55;;;;;;;10.93;2.78;;;11.30;99.90;;;;;;5104498;28;20544;-79
2023/10/14 01:58:29;;;;;;;17.40;3.60;;;11.30;99.90;;;;;;5097025;28;20040;-80
2023/10/14 02:01:15;;;;;;;16.23;2.70;;;11.30;99.90;;;;;;5085005;28;20056;-79
2023/10/14 02:03:51;;;;;;;25.75;4.05;;;11.20;99.90;;;;;;5103885;28;20051;-79
2023/10/14 02:08:51;;;;;;;14.68;2.58;;;11.20;99.90;;;;;;5101378;28;20044;-78
2023/10/14 02:11:32;;;;;;;19.45;3.10;;;11.20;99.90;;;;;;5115687;28;20075;-78
2023/10/14 02:14:02;;;;;;;12.57;2.80;;;11.20;99.90;;;;;;5122272;28;20075;-79
2023/10/14 02:16:30;;;;;;;22.95;3.08;;;11.10;99.90;;;;;;5095480;28;20070;-79
2023/10/14 02:19:17;;;;;;;19.35;2.80;;;11.00;99.90;;;;;;5098705;28;20099;-78
2023/10/14 02:21:57;;;;;;;21.58;3.17;;;11.10;99.90;;;;;;5114806;28;20076;-80
2023/10/14 02:24:25;;;;;;;18.63;2.90;;;11.00;99.90;;;;;;5119794;28;20044;-78
2023/10/14 02:26:51;;;;;;;15.68;3.20;;;11.00;99.90;;;;;;5099159;28;20079;-79
2023/10/14 02:29:17;;;;;;;16.50;3.28;;;11.00;99.90;;;;;;5104179;28;20044;-79
2023/10/14 02:31:46;;;;;;;12.98;3.05;;;11.00;99.90;;;;;;5104849;28;20032;-80
2023/10/14 02:34:15;;;;;;;14.88;3.42;;;11.00;99.90;;;;;;5091460;28;20102;-81
2023/10/14 02:36:50;;;;;;;16.25;4.05;;;10.90;99.90;;;;;;5092431;28;20135;-79
2023/10/14 02:39:27;;;;;;;12.65;2.63;;;10.90;99.90;;;;;;5091546;28;20050;-79
2023/10/14 02:44:43;;;;;;;19.27;3.33;;;10.80;99.90;;;;;;5088529;28;20075;-80
2023/10/14 02:47:09;;;;;;;14.85;2.90;;;10.80;99.90;;;;;;5119073;28;20147;-79
2023/10/14 02:49:42;;;;;;;17.13;2.88;;;10.80;99.90;;;;;;5103409;28;20060;-78
2023/10/14 02:52:12;;;;;;;10.32;2.38;;;10.90;99.90;;;;;;5106203;28;20406;-80
2023/10/14 02:54:44;;;;;;;17.55;3.53;;;10.80;99.90;;;;;;5101159;28;20174;-80
2023/10/14 02:57:13;;;;;;;14.93;2.65;;;10.80;99.90;;;;;;5098932;28;20371;-81
2023/10/14 03:09:51;;;;;;;18.60;3.45;;;10.80;99.90;;;;;;5108516;28;20062;-79
2023/10/14 03:12:21;;;;;;;15.10;3.15;;;10.70;99.90;;;;;;5064903;28;20060;-80
2023/10/14 03:14:48;;;;;;;20.08;3.63;;;10.70;99.90;;;;;;5116871;28;20125;-79
2023/10/14 03:17:25;;;;;;;15.47;3.23;;;11.10;99.90;;;;;;5099517;28;20041;-80
2023/10/14 03:19:53;;;;;;;16.52;3.30;;;10.70;99.90;;;;;;5095021;28;20037;-80
2023/10/14 03:22:23;;;;;;;19.75;3.80;;;10.70;99.90;;;;;;5094122;28;20040;-79
2023/10/14 03:24:54;;;;;;;19.85;2.80;;;10.70;99.90;;;;;;5078734;28;20111;-80
2023/10/14 03:27:20;;;;;;;16.52;3.28;;;10.70;99.90;;;;;;5105823;28;20050;-79
2023/10/14 03:29:51;;;;;;;20.45;3.30;;;10.60;99.90;;;;;;5108587;28;20048;-80
2023/10/14 03:32:17;;;;;;;20.50;2.92;;;10.60;99.90;;;;;;5083120;28;20047;-80
2023/10/14 03:34:45;;;;;;;14.32;3.05;;;10.70;99.90;;;;;;5093488;28;20040;-79
2023/10/14 03:37:25;;;;;;;19.40;3.40;;;10.60;99.90;;;;;;5105906;28;20079;-80
2023/10/14 03:40:52;;;;;;;18.92;3.40;;;10.60;99.90;;;;;;5079025;28;20140;-79
2023/10/14 03:42:52;;;;;;;17.55;2.63;;;10.60;99.90;;;;;;5096230;28;20043;-80
2023/10/14 03:45:24;;;;;;;14.07;3.40;;;10.60;99.90;;;;;;5070964;28;20098;-78
2023/10/14 03:47:59;;;;;;;15.85;2.95;;;10.60;99.90;;;;;;5105693;28;20084;-78
2023/10/14 03:50:25;;;;;;;23.40;3.10;;;10.60;99.90;;;;;;5096458;28;20040;-78
2023/10/14 03:52:54;;;;;;;25.38;3.83;;;10.60;99.90;;;;;;5093092;28;20040;-79
2023/10/14 03:55:24;;;;;;;20.88;2.92;;;10.60;99.90;;;;;;5090550;28;20038;-81
2023/10/14 03:58:03;;;;;;;24.60;4.30;;;10.50;99.90;;;;;;5083135;28;20054;-79
2023/10/14 04:00:37;;;;;;;18.38;4.18;;;10.50;99.90;;;;;;5103991;28;20060;-80
2023/10/14 04:03:14;;;;;;;13.52;2.72;;;10.60;99.90;;;;;;5108489;28;20421;-80
2023/10/14 04:05:52;;;;;;;17.10;3.05;;;10.60;99.90;;;;;;5111573;28;20039;-80
2023/10/14 04:08:25;;;;;;;22.95;3.40;;;10.60;99.90;;;;;;5123825;28;20047;-81
2023/10/14 04:11:06;;;;;;;18.60;3.22;;;10.60;99.90;;;;;;5108115;28;20116;-81
2023/10/14 04:13:34;;;;;;;20.23;3.78;;;10.60;99.90;;;;;;5098123;28;20473;-82
2023/10/14 04:16:00;;;;;;;15.18;3.22;;;10.60;99.90;;;;;;5089882;28;20049;-81
2023/10/14 04:18:26;;;;;;;21.77;3.17;;;10.70;99.90;;;;;;5109734;28;20397;-79
2023/10/14 04:23:59;;;;;;;23.80;3.35;;;10.70;99.90;;;;;;5117663;28;20108;-81
2023/10/14 04:26:24;;;;;;;15.27;2.88;;;10.70;99.90;;;;;;5099936;28;20111;-80
2023/10/14 04:28:53;;;;;;;17.63;3.30;;;10.70;99.90;;;;;;5092211;28;20087;-81
2023/10/14 04:32:27;;;;;;;17.02;2.85;;;10.70;99.90;;;;;;5096162;28;20059;-80
2023/10/14 04:34:21;;;;;;;20.75;3.50;;;10.70;99.90;;;;;;5084719;28;20040;-80
2023/10/14 04:36:54;;;;;;;19.70;3.90;;;10.70;99.90;;;;;;5101339;28;20058;-80
2023/10/14 04:39:31;;;;;;;16.10;2.78;;;10.70;99.90;;;;;;5103100;28;20040;-80
2023/10/14 04:42:21;;;;;;;18.35;3.60;;;10.80;99.90;;;;;;5100769;28;20097;-80
2023/10/14 04:45:13;;;;;;;27.55;3.50;;;10.80;99.90;;;;;;5102407;28;20044;-80
2023/10/14 04:47:36;;;;;;;17.27;3.42;;;10.80;99.90;;;;;;5098989;28;20051;-80
2023/10/14 04:50:25;;;;;;;19.70;3.33;;;10.80;99.90;;;;;;5085666;28;20054;-81
2023/10/14 04:52:50;;;;;;;25.23;4.18;;;10.80;99.90;;;;;;5095511;28;20098;-81
2023/10/14 04:58:06;;;;;;;19.20;3.28;;;10.80;99.90;;;;;;5095457;28;20205;-79
2023/10/14 05:00:49;;;;;;;17.70;3.15;;;10.80;99.90;;;;;;5100764;28;20449;-82
2023/10/14 05:03:19;;;;;;;21.15;3.05;;;10.70;99.90;;;;;;5099303;28;20494;-82
2023/10/14 05:05:49;;;;;;;22.55;3.08;;;10.60;99.90;;;;;;5090790;28;20045;-82
2023/10/14 05:08:22;;;;;;;21.58;3.40;;;11.40;99.90;;;;;;5088925;28;20040;-81
2023/10/14 05:10:50;;;;;;;17.70;3.58;;;10.60;99.90;;;;;;5110280;28;20044;-79
2023/10/14 05:13:25;;;;;;;16.10;2.83;;;10.60;99.90;;;;;;5082302;28;20074;-79
2023/10/14 05:15:53;;;;;;;14.65;3.00;;;11.50;99.90;;;;;;5094116;28;20048;-81
2023/10/14 05:18:27;;;;;;;18.55;3.30;;;10.60;99.90;;;;;;5098660;28;20040;-80
2023/10/14 05:21:12;;;;;;;21.30;3.55;;;10.50;99.90;;;;;;5115900;28;20051;-80
2023/10/14 05:23:42;;;;;;;19.20;3.55;;;10.50;99.90;;;;;;5081342;28;20078;-80
2023/10/14 05:26:07;;;;;;;18.17;3.65;;;10.50;99.90;;;;;;5097890;28;20058;-81
2023/10/14 05:28:36;;;;;;;20.58;4.07;;;10.60;99.90;;;;;;5095098;28;20068;-80
2023/10/14 05:31:08;;;;;;;19.98;3.40;;;10.40;99.90;;;;;;5102925;28;20450;-80
2023/10/14 05:33:36;;;;;;;20.67;3.58;;;10.40;99.90;;;;;;5094184;28;20055;-80
2023/10/14 05:36:05;;;;;;;19.40;4.32;;;10.40;99.90;;;;;;5089744;28;20486;-82
2023/10/14 05:38:30;;;;;;;19.00;4.28;;;10.40;99.90;;;;;;5113761;28;20040;-82
2023/10/14 05:41:00;;;;;;;26.08;3.83;;;10.30;99.90;;;;;;5089690;28;20036;-81
2023/10/14 05:43:27;;;;;;;25.17;3.03;;;10.30;99.90;;;;;;5105481;28;20051;-80
2023/10/14 05:45:53;;;;;;;20.08;4.75;;;10.30;99.90;;;;;;5105586;28;20461;-82
2023/10/14 05:48:27;;;;;;;20.77;3.40;;;10.30;99.90;;;;;;5083141;28;20494;-82
2023/10/14 05:50:56;;;;;;;24.30;3.67;;;10.30;99.90;;;;;;5103022;28;20036;-82
2023/10/14 05:53:31;;;;;;;15.52;3.55;;;10.90;99.90;;;;;;5098329;28;20036;-81
2023/10/14 05:56:09;;;;;;;20.85;3.65;;;10.30;99.90;;;;;;5101855;28;20051;-81
2023/10/14 05:58:37;;;;;;;15.90;3.00;;;10.30;99.90;;;;;;5075000;28;20040;-82
2023/10/14 06:01:10;;;;;;;12.73;2.80;;;10.30;99.90;;;;;;5110855;28;20056;-82
2023/10/14 06:03:41;;;;;;;17.45;3.95;;;10.30;99.90;;;;;;5096055;28;20032;-80
2023/10/14 06:06:10;;;;;;;24.95;3.80;;;10.30;99.90;;;;;;5108644;28;20047;-81
2023/10/14 06:08:39;;;;;;;20.98;3.60;;;10.30;99.90;;;;;;5107178;28;20067;-80
2023/10/14 06:11:05;;;;;;;22.00;3.40;;;10.70;99.90;;;;;;5104326;28;20072;-81
2023/10/14 06:13:32;;;;;;;25.17;4.30;;;10.30;99.90;;;;;;5116185;28;20036;-80
2023/10/14 06:16:09;;;;;;;23.98;3.95;;;10.20;99.90;;;;;;5108484;28;20048;-80
2023/10/14 06:18:37;;;;;;;16.55;3.17;;;10.30;99.90;;;;;;5132164;28;20036;-79
2023/10/14 06:21:05;;;;;;;13.15;3.42;;;10.30;99.90;;;;;;5118770;28;20086;-82
2023/10/14 06:23:32;;;;;;;;;;;10.30;99.90;;;;;;5096866;28;20036;-81
2023/10/14 06:25:57;;;;;;;18.55;3.55;;;10.30;99.90;;;;;;5096909;28;19967;-80
2023/10/14 06:28:25;;;;;;;20.13;3.55;;;10.20;99.90;;;;;;5098218;28;20037;-81
2023/10/14 06:30:51;;;;;;;16.23;3.72;;;10.20;99.90;;;;;;5093682;28;20053;-83
2023/10/14 06:33:17;;;;;;;16.08;3.72;;;10.20;99.90;;;;;;5100330;28;20070;-82
2023/10/14 06:35:43;;;;;;;14.85;3.75;;;11.10;99.90;;;;;;5109046;28;20037;-82
2023/10/14 06:38:10;;;;;;;17.60;3.25;;;10.90;99.90;;;;;;5120029;28;20048;-80
2023/10/14 06:40:37;;;;;;;19.77;3.87;;;10.50;99.90;;;;;;5083076;28;20075;-83
2023/10/14 06:43:08;;;;;;;25.52;3.22;;;10.20;99.90;;;;;;5100784;28;20386;-84
2023/10/14 06:45:35;;;;;;;26.75;4.28;;;10.30;99.90;;;;;;5113378;28;20044;-82
2023/10/14 06:48:03;;;;;;;16.98;3.80;;;10.30;99.90;;;;;;5080510;28;20051;-81
2023/10/14 06:50:32;;;;;;;17.27;3.08;;;10.30;99.90;;;;;;5089028;28;20075;-83
2023/10/14 06:53:00;;;;;;;16.45;3.45;;;10.30;99.90;;;;;;5100060;28;20086;-83
2023/10/14 06:55:37;;;;;;;22.23;4.18;;;10.30;99.90;;;;;;5095637;28;20049;-80
2023/10/14 06:58:05;;;;;;;18.25;3.30;;;10.30;99.90;;;;;;5098528;28;20044;-83
2023/10/14 07:00:32;;;;;;;19.65;3.42;;;10.30;99.90;;;;;;5099377;28;20060;-84
2023/10/14 07:03:02;;;;;;;22.17;3.28;;;10.40;99.90;;;;;;5072474;28;20044;-85
2023/10/14 07:05:29;;;;;;;23.63;3.33;;;10.40;99.90;;;;;;5076073;28;20044;-81
2023/10/14 07:07:57;;;;;;;20.05;3.63;;;10.50;99.90;;;;;;5112462;28;20028;-80
2023/10/14 07:10:27;;;;;;;16.80;3.92;;;10.50;99.90;;;;;;5106374;28;20040;-82
2023/10/14 07:12:57;;;;;;;19.33;3.83;;;10.50;99.90;;;;;;5078883;28;20365;-82
2023/10/14 07:15:25;;;;;;;23.00;3.92;;;10.50;99.90;;;;;;5114456;28;20040;-83
2023/10/14 07:17:51;;;;;;;16.48;3.35;;;10.60;99.90;;;;;;5106297;28;20051;-83
2023/10/14 07:20:16;;;;;;;19.52;4.13;;;10.70;99.90;;;;;;5105784;28;20043;-81
2023/10/14 07:22:42;;;;;;;21.35;4.88;;;11.00;99.90;;;;;;5079842;28;20040;-83
2023/10/14 07:25:11;;;;;;;11.52;3.20;;;11.90;99.90;;;;;;5100191;28;20076;-81
2023/10/14 07:27:40;;;;;;;21.95;3.22;;;11.20;99.90;;;;;;5108694;28;20071;-82
2023/10/14 07:30:14;;;;;;;24.40;4.25;;;11.30;99.90;;;;;;5093161;28;20170;-80
2023/10/14 07:32:44;;;;;;;16.17;3.45;;;11.40;99.90;;;;;;5100317;28;20070;-83
2023/10/14 07:35:13;;;;;;;23.38;4.05;;;11.70;99.90;;;;;;5117011;28;20077;-82
2023/10/14 07:37:50;;;;;;;;;;;12.00;99.90;;;;;;5108292;28;20036;-82
2023/10/14 07:40:26;;;;;;;17.63;3.85;;;12.10;99.90;;;;;;5112727;28;19920;-81
2023/10/14 07:43:10;;;;;;;22.00;4.13;;;12.00;99.90;;;;;;5132612;28;20048;-81
2023/10/14 07:45:46;;;;;;;15.55;3.65;;;12.10;99.90;;;;;;5112107;28;20107;-81
2023/10/14 07:48:13;;;;;;;15.95;3.55;;;12.20;99.90;;;;;;5114618;28;20497;-81
2023/10/14 07:50:38;;;;;;;18.17;4.03;;;12.20;99.90;;;;;;5112119;28;20304;-82
2023/10/14 07:53:12;;;;;;;15.52;3.55;;;12.20;99.90;;;;;;5106929;28;20063;-79
2023/10/14 07:55:49;;;;;;;17.80;3.78;;;12.10;99.90;;;;;;5082352;28;20070;-81
2023/10/14 07:58:33;;;;;;;20.75;3.60;;;12.20;99.90;;;;;;5097808;28;20040;-81
2023/10/14 08:01:06;;;;;;;13.43;2.88;;;12.20;99.90;;;;;;5110700;28;20056;-80
2023/10/14 08:03:32;;;;;;;14.27;3.22;;;12.20;99.90;;;;;;5100400;28;20053;-81
2023/10/14 08:06:05;;;;;;;18.42;3.45;;;12.30;99.90;;;;;;5090346;28;20055;-79
2023/10/14 08:08:31;;;;;;;18.77;3.40;;;12.30;99.90;;;;;;5105393;28;20042;-80
2023/10/14 08:10:59;;;;;;;15.68;3.42;;;12.40;99.90;;;;;;5100210;28;20056;-82
2023/10/14 08:13:25;;;;;;;16.33;3.17;;;12.40;99.90;;;;;;5089684;28;20060;-79
2023/10/14 08:15:55;;;;;;;13.85;2.65;;;12.20;99.90;;;;;;5107554;28;20049;-80
2023/10/14 08:18:26;;;;;;;17.63;3.42;;;12.40;99.90;;;;;;5093870;28;20051;-81
2023/10/14 08:20:55;;;;;;;18.33;3.33;;;12.50;99.90;;;;;;5117669;28;20067;-79
2023/10/14 08:23:22;;;;;;;13.95;2.80;;;12.50;99.90;;;;;;5105434;28;20028;-83
2023/10/14 08:25:57;;;;;;;15.27;3.25;;;12.60;99.90;;;;;;5108417;28;20045;-81
2023/10/14 08:28:33;;;;;;;14.63;3.33;;;12.60;99.90;;;;;;5106658;28;20086;-82
2023/10/14 08:30:59;;;;;;;24.70;3.50;;;12.60;99.90;;;;;;5105343;28;20052;-81
2023/10/14 08:33:28;;;;;;;12.55;2.40;;;12.80;99.90;;;;;;5078562;28;20048;-79
2023/10/14 08:35:55;;;;;;;12.05;2.85;;;12.80;99.90;;;;;;5093492;28;20052;-83
2023/10/14 08:38:27;;;;;;;15.10;3.00;;;12.90;99.90;;;;;;5092308;28;20043;-83
2023/10/14 08:40:54;;;;;;;9.45;2.15;;;13.00;99.90;;;;;;5099362;28;20040;-82
2023/10/14 08:43:26;;;;;;;18.53;3.30;;;13.20;99.90;;;;;;5086435;28;20049;-82
2023/10/14 08:45:56;;;;;;;15.02;3.22;;;13.30;99.90;;;;;;5096845;28;20349;-81
2023/10/14 08:48:26;;;;;;;11.10;2.60;;;13.50;99.90;;;;;;5086320;28;20052;-81
2023/10/14 08:50:57;;;;;;;12.38;2.83;;;13.60;99.90;;;;;;5101142;28;20119;-84
2023/10/14 08:53:26;;;;;;;12.43;2.13;;;13.60;99.90;;;;;;5105611;28;20043;-80
2023/10/14 08:55:53;;;;;;;11.65;2.78;;;13.70;99.90;;;;;;5084865;28;20434;-81
2023/10/14 08:58:22;;;;;;;14.20;3.13;;;13.80;99.90;;;;;;5095509;28;20044;-82
2023/10/14 09:00:50;;;;;;;12.68;2.47;;;13.90;99.90;;;;;;5086050;28;20177;-83
2023/10/14 09:03:17;;;;;;;16.55;2.70;;;14.80;99.90;;;;;;5104156;28;20040;-82
2023/10/14 09:05:44;;;;;;;16.38;2.78;;;14.30;99.90;;;;;;5093286;28;20120;-81
2023/10/14 09:08:19;;;;;;;11.40;2.40;;;14.20;99.90;;;;;;5102629;28;20067;-80
2023/10/14 09:10:45;;;;;;;21.38;2.95;;;14.30;99.90;;;;;;5107081;28;20062;-81
2023/10/14 09:13:21;;;;;;;16.70;2.53;;;14.30;99.90;;;;;;5108191;28;20074;-81
2023/10/14 09:15:48;;;;;;;12.48;3.10;;;14.30;99.90;;;;;;5108311;28;20101;-81
2023/10/14 09:18:21;;;;;;;14.88;2.92;;;14.30;99.90;;;;;;5107590;28;20036;-81
2023/10/14 09:20:55;;;;;;;14.18;2.88;;;14.30;99.90;;;;;;5100862;28;20055;-80
2023/10/14 09:24:03;;;;;;;9.60;2.30;;;14.70;99.90;;;;;;5104876;28;20036;-80
2023/10/14 09:26:22;;;;;;;6.88;2.15;;;14.20;99.90;;;;;;5094916;28;20048;-82
2023/10/14 09:28:50;;;;;;;15.73;2.58;;;14.10;99.90;;;;;;5104072;28;20066;-79
2023/10/14 09:31:19;;;;;;;13.80;2.67;;;14.00;99.90;;;;;;5104580;28;20052;-81
2023/10/14 09:33:45;;;;;;;12.93;3.25;;;14.00;99.90;;;;;;5102162;28;20509;-80
2023/10/14 09:36:18;;;;;;;12.07;2.40;;;13.70;99.90;;;;;;5105575;28;20055;-80
2023/10/14 09:38:51;;;;;;;9.40;2.78;;;13.50;99.90;;;;;;5102726;28;20076;-80
2023/10/14 09:41:21;;;;;;;14.30;3.40;;;13.40;99.90;;;;;;5095871;28;20036;-83
2023/10/14 09:43:49;;;;;;;16.55;3.25;;;13.50;99.90;;;;;;5100014;28;20063;-81
2023/10/14 09:46:17;;;;;;;15.98;2.72;;;14.10;99.90;;;;;;5104091;28;20062;-80
2023/10/14 09:48:46;;;;;;;15.80;2.58;;;14.00;99.90;;;;;;5100079;28;20047;-81
2023/10/14 09:51:15;;;;;;;14.73;2.60;;;14.30;99.90;;;;;;5090693;28;20065;-80
2023/10/14 09:53:46;;;;;;;13.25;2.92;;;14.70;99.90;;;;;;5080800;28;20049;-83
2023/10/14 09:56:12;;;;;;;13.05;2.63;;;14.90;99.90;;;;;;5104957;28;20108;-82
2023/10/14 09:58:43;;;;;;;15.20;3.38;;;15.10;99.90;;;;;;5087211;28;20037;-81
2023/10/14 10:01:16;;;;;;;10.65;2.40;;;15.20;99.90;;;;;;5098981;28;20055;-80
2023/10/14 10:03:57;;;;;;;13.82;2.75;;;15.50;99.90;;;;;;5104060;28;20058;-83
2023/10/14 10:07:02;;;;;;;8.30;1.80;;;15.30;99.90;;;;;;5086692;28;20059;-80
2023/10/14 10:09:47;;;;;;;10.07;1.92;;;14.80;99.90;;;;;;5102685;28;20047;-81
2023/10/14 10:12:16;;;;;;;9.02;2.33;;;14.30;99.90;;;;;;5121305;28;20104;-81
2023/10/14 10:14:44;;;;;;;10.43;1.80;;;13.80;99.90;;;;;;5112557;28;20052;-80
2023/10/14 10:17:12;;;;;;;7.40;1.83;;;13.50;99.90;;;;;;5108734;28;20036;-80
2023/10/14 10:20:12;;;;;;;12.50;2.58;;;13.20;99.90;;;;;;5102581;28;20033;-81
2023/10/14 10:22:41;;;;;;;;;;;12.90;99.90;;;;;;5098259;28;20040;-82
2023/10/14 10:25:09;;;;;;;5.97;1.80;;;13.00;99.90;;;;;;5095243;28;19920;-81
2023/10/14 10:27:36;;;;;;;10.07;2.05;;;13.50;99.90;;;;;;5110215;28;20072;-81
2023/10/14 10:30:08;;;;;;;9.48;2.05;;;14.10;99.90;;;;;;5093733;28;20044;-83
2023/10/14 10:32:34;;;;;;;9.02;2.63;;;14.80;99.90;;;;;;5095766;28;20104;-84
2023/10/14 10:35:06;;;;;;;9.15;1.70;;;15.50;99.90;;;;;;5093140;28;20055;-83
2023/10/14 10:37:37;;;;;;;9.50;2.03;;;16.00;99.90;;;;;;5119045;28;20146;-82
2023/10/14 10:40:10;;;;;;;12.88;2.15;;;16.40;99.90;;;;;;5096758;28;20032;-81
2023/10/14 10:42:56;;;;;;;11.60;2.42;;;16.80;99.90;;;;;;5109477;28;20050;-83
2023/10/14 10:45:42;;;;;;;11.82;2.30;;;17.10;99.90;;;;;;5105369;28;20383;-81
2023/10/14 10:48:15;;;;;;;8.27;2.00;;;17.40;99.90;;;;;;5098269;28;20059;-81
2023/10/14 10:50:48;;;;;;;12.95;1.92;;;17.90;99.90;;;;;;5108199;28;20074;-81
2023/10/14 10:53:18;;;;;;;14.00;2.70;;;18.00;99.90;;;;;;5097638;28;20100;-82
2023/10/14 10:55:46;;;;;;;9.60;1.80;;;18.30;99.90;;;;;;5105018;28;21441;-84
2023/10/14 10:58:13;;;;;;;12.93;2.92;;;18.40;99.90;;;;;;5103310;28;20064;-83
2023/10/14 11:00:46;;;;;;;9.93;2.40;;;18.10;99.90;;;;;;5094887;28;20056;-81
2023/10/14 11:03:16;;;;;;;11.75;1.92;;;17.90;99.90;;;;;;5098003;28;20454;-81
2023/10/14 11:05:43;;;;;;;9.48;2.00;;;17.30;97.90;;;;;;5068667;28;20048;-83
2023/10/14 11:08:10;;;;;;;8.95;2.33;;;16.30;99.30;;;;;;5091735;28;20086;-82
2023/10/14 11:10:38;;;;;;;13.00;2.80;;;15.70;99.90;;;;;;5085612;28;20076;-81
2023/10/14 11:13:07;;;;;;;12.57;3.15;;;15.20;99.90;;;;;;5101210;28;20040;-83
2023/10/14 11:15:34;;;;;;;16.15;2.75;;;14.80;99.90;;;;;;5107079;28;20078;-81
2023/10/14 11:18:03;;;;;;;13.27;2.92;;;14.70;99.90;;;;;;5106004;28;20040;-82
2023/10/14 11:20:36;;;;;;;18.40;3.63;;;15.10;99.90;;;;;;5085857;28;20099;-79
2023/10/14 11:23:04;;;;;;;13.20;2.55;;;15.50;99.90;;;;;;5109984;28;20031;-82
2023/10/14 11:25:35;;;;;;;13.73;2.55;;;16.10;99.90;;;;;;5095619;28;20114;-82
2023/10/14 11:28:01;;;;;;;12.98;3.60;;;16.40;99.90;;;;;;5085190;28;20036;-80
2023/10/14 11:30:27;;;;;;;14.80;3.30;;;16.30;99.90;;;;;;5077953;28;20037;-80
2023/10/14 11:32:56;;;;;;;11.02;2.15;;;16.50;99.90;;;;;;5089191;28;20047;-78
2023/10/14 11:35:22;;;;;;;9.48;2.28;;;15.10;99.90;;;;;;5092794;28;20075;-78
2023/10/14 11:37:56;;;;;;;8.25;2.42;;;14.70;99.90;;;;;;5096503;28;20045;-78
2023/10/14 11:40:26;;;;;;;8.98;2.65;;;14.40;99.90;;;;;;5091174;28;20047;-79
2023/10/14 11:42:55;;;;;;;11.60;2.50;;;14.10;99.90;;;;;;5106326;28;20104;-80
2023/10/14 11:45:21;;;;;;;14.85;3.20;;;13.80;99.90;;;;;;5117674;28;20036;-80
2023/10/14 11:47:48;;;;;;;9.68;2.22;;;13.60;99.90;;;;;;5101824;28;20097;-81
2023/10/14 11:50:17;;;;;;;12.80;2.60;;;13.60;99.90;;;;;;5100382;28;20048;-79
2023/10/14 11:52:47;;;;;;;13.35;3.33;;;13.50;99.90;;;;;;5100857;28;20040;-79
2023/10/14 11:55:16;;;;;;;14.73;3.30;;;13.60;99.90;;;;;;5108247;28;20047;-80
2023/10/14 11:57:43;;;;;;;11.60;2.60;;;14.00;99.90;;;;;;5090376;28;20047;-80
2023/10/14 12:00:12;;;;;;;17.08;3.35;;;14.30;99.90;;;;;;5097476;28;20052;-80
2023/10/14 12:02:40;;;;;;;13.85;3.08;;;14.30;99.90;;;;;;5098768;28;20036;-79
2023/10/14 12:05:07;;;;;;;15.10;3.45;;;14.10;99.90;;;;;;5092326;28;20055;-81
2023/10/14 12:07:33;;;;;;;16.45;3.25;;;13.80;99.90;;;;;;5083182;28;20040;-79
2023/10/14 12:10:06;;;;;;;26.90;2.90;;;13.50;99.90;;;;;;5097133;28;20044;-80
2023/10/14 12:12:38;;;;;;;12.73;2.92;;;13.30;99.90;;;;;;5098856;28;21199;-80
2023/10/14 12:15:07;;;;;;;20.58;3.33;;;13.30;99.90;;;;;;5102252;28;20462;-80
2023/10/14 12:17:34;;;;;;;20.08;3.55;;;13.10;99.90;;;;;;5099895;28;20529;-80
2023/10/14 12:20:10;;;;;;;9.05;2.15;;;13.10;99.90;;;;;;5093368;28;20048;-83
2023/10/14 12:22:37;;;;;;;19.02;3.15;;;13.10;99.90;;;;;;5115641;27;20062;-81
2023/10/14 12:25:04;;;;;;;13.07;2.65;;;13.10;99.90;;;;;;5097473;28;20485;-81
2023/10/14 12:27:30;;;;;;;13.20;2.58;;;13.10;99.90;;;;;;5106070;27;20040;-80
2023/10/14 12:30:00;;;;;;;10.35;2.45;;;13.10;99.90;;;;;;5097760;28;20325;-83
2023/10/14 12:32:30;;;;;;;12.48;2.28;;;13.10;99.90;;;;;;5098381;28;20414;-82
2023/10/14 12:34:59;;;;;;;7.80;2.38;;;13.10;99.90;;;;;;5101536;28;20123;-81
2023/10/14 12:37:28;;;;;;;11.95;2.60;;;13.20;99.80;;;;;;5090523;28;20044;-81
2023/10/14 12:40:04;;;;;;;12.13;2.40;;;13.10;99.90;;;;;;5101884;28;20052;-83
2023/10/14 12:42:47;;;;;;;15.55;2.72;;;13.10;99.90;;;;;;5111346;28;20048;-81
2023/10/14 12:45:25;;;;;;;11.57;2.30;;;13.10;99.90;;;;;;5094907;28;20044;-80
2023/10/14 12:47:55;;;;;;;8.70;2.33;;;13.20;99.90;;;;;;5087512;28;20035;-80
2023/10/14 12:50:22;;;;;;;9.60;2.35;;;13.80;99.40;;;;;;5080976;28;20044;-83
2023/10/14 12:52:50;;;;;;;12.93;2.72;;;13.20;99.20;;;;;;5103423;28;20040;-84
2023/10/14 12:55:22;;;;;;;8.48;2.53;;;13.20;99.90;;;;;;5089404;28;20048;-83
2023/10/14 12:57:49;;;;;;;10.43;2.67;;;13.70;99.90;;;;;;5095228;28;20048;-81
2023/10/14 13:00:25;;;;;;;14.32;3.13;;;13.10;99.90;;;;;;5102284;28;20088;-82
2023/10/14 13:02:57;;;;;;;9.68;2.13;;;13.10;99.90;;;;;;5109647;28;20040;-80
2023/10/14 13:05:25;;;;;;;15.90;3.53;;;13.10;99.90;;;;;;5092562;28;20107;-81
2023/10/14 13:07:52;;;;;;;10.60;2.47;;;14.10;99.90;;;;;;5077024;28;20052;-82
2023/10/14 13:10:25;;;;;;;10.65;2.63;;;12.40;99.90;;;;;;5090202;28;20100;-82
2023/10/14 13:13:00;;;;;;;11.50;2.80;;;13.00;99.90;;;;;;5072266;28;20379;-80
2023/10/14 13:15:28;;;;;;;11.43;2.42;;;14.10;99.90;;;;;;5094233;28;20405;-81
2023/10/14 13:17:58;;;;;;;;;;;13.10;99.90;;;;;;5091447;28;20052;-81
2023/10/14 13:20:26;;;;;;;14.02;2.72;;;12.90;99.90;;;;;;5088061;28;19920;-82
2023/10/14 13:22:57;;;;;;;12.27;2.45;;;12.90;99.90;;;;;;5086732;28;20128;-82
2023/10/14 13:25:24;;;;;;;12.73;2.50;;;12.90;99.90;;;;;;5097710;28;20048;-79
2023/10/14 13:27:51;;;;;;;10.77;2.60;;;12.80;99.90;;;;;;5073749;28;20056;-81
2023/10/14 13:30:22;;;;;;;12.57;3.33;;;12.80;99.90;;;;;;5095231;28;20048;-82
2023/10/14 13:32:58;;;;;;;16.02;2.85;;;13.00;99.90;;;;;;5087052;28;20108;-81